aviador You're here:

WSSL Decoded Metar

SINGAPORE in SINGAPORE
Report Time2018-01-19 19:00:00
UTC Time2018-01-19 19:17:57
Flight Rules vfr VFR
WindVRB at 01 kt
Visibility9999 m
Phenomena:N/A
Clouds:Few 016 Hf
Broken 150 Hf
Expected CloudBase > 800 ft AGL from Temp-Dew spread
Ceiling15,000 ft
Temp26°C (ISA +11)
Dew Point24°C (89% RH)
QNH1008 hPa
Density Alt1,886 ft
Elevation46 ft
Report Wrong Elevation
Raw Report
WSSL 191900Z VRB01KT 9999 FEW016 BKN150 26/24 Q1008 RMK 1430Z
Q1010=

Extra information for WSSL:More info

Metar Taf Metar & Taf Last 4 Metars F.Rules Stats Wind Profile Meteogram Temp Stats Airport Information Weather charts Add Link Nearby VenuesMetar ALERT Operation Metar Decoded Social comments